Site contains unofficial IBTrACS data. Visit the IBTrACS Website to access archived data.

1860 NOT_NAMED (1860052S14057)


IBTrACS version v04r00. Visit IBTrACS website for data access.
Please direct all questions to the IBTrACS Q and A forum

Storm track - Intensity - Wind Radii - Intensity Data - Source Data - All data

Summary Information

Storm ID 1860052S14057
Start Feb 21 06Z
End Feb 28 06Z
ATCF IDs
Track status Best track data.

Storm track plot

Map of storm track

Intensity plots

No Intensity information for this storm


Radial wind information

No radial wind information for this storm


Position and Intensity Table

BASIN ISO_TIME_________ NATURE LAT LON
degrees north degrees east
SI 1860-02-21 06:00:00 NR -13.90 56.90
SI 09:00:00 NR -14.11 56.71
SI 12:00:00 NR -14.32 56.52
SI 15:00:00 NR -14.52 56.34
SI 18:00:00 NR -14.63 56.31
SI 21:00:00 NR -14.79 56.20
SI 1860-02-22 00:00:00 NR -14.98 56.06
SI 03:00:00 NR -15.16 55.90
SI 06:00:00 NR -15.35 55.75
SI 09:00:00 NR -15.51 55.64
SI 12:00:00 NR -15.65 55.56
SI 15:00:00 NR -15.77 55.50
SI 18:00:00 NR -15.88 55.45
SI 21:00:00 NR -15.97 55.39
SI 1860-02-23 00:00:00 NR -16.05 55.33
SI 03:00:00 NR -16.12 55.27
SI 06:00:00 NR -16.20 55.20
SI 09:00:00 NR -16.29 55.12
SI 12:00:00 NR -16.39 55.04
SI 15:00:00 NR -16.48 54.96
SI 18:00:00 NR -16.58 54.87
SI 21:00:00 NR -16.67 54.79
SI 1860-02-24 00:00:00 NR -16.76 54.71
SI 03:00:00 NR -16.85 54.63
SI 06:00:00 NR -16.95 54.55
SI 09:00:00 NR -17.05 54.48
SI 12:00:00 NR -17.16 54.42
SI 15:00:00 NR -17.27 54.35
SI 18:00:00 NR -17.38 54.29
SI 21:00:00 NR -17.48 54.22
SI 1860-02-25 00:00:00 NR -17.58 54.16
SI 03:00:00 NR -17.68 54.09
SI 06:00:00 NR -17.80 54.00
SI 09:00:00 NR -17.94 53.89
SI 12:00:00 NR -18.09 53.78
SI 15:00:00 NR -18.24 53.65
SI 18:00:00 NR -18.40 53.52
SI 21:00:00 NR -18.56 53.39
SI 1860-02-26 00:00:00 NR -18.72 53.26
SI 03:00:00 NR -18.88 53.13
SI 06:00:00 NR -19.05 53.00
SI 09:00:00 NR -19.22 52.87
SI 12:00:00 NR -19.39 52.74
SI 15:00:00 NR -19.57 52.61
SI 18:00:00 NR -19.75 52.47
SI 21:00:00 NR -19.92 52.33
SI 1860-02-27 00:00:00 NR -20.09 52.17
SI 03:00:00 NR -20.26 52.01
SI 06:00:00 NR -20.42 51.84
SI 09:00:00 NR -20.58 51.67
SI 12:00:00 NR -20.75 51.54
SI 15:00:00 NR -20.93 51.41
SI 18:00:00 NR -21.10 51.29
SI 21:00:00 NR -21.28 51.17
SI 1860-02-28 00:00:00 NR -21.45 51.04
SI 03:00:00 NR -21.63 50.92
SI 06:00:00 NR -21.80 50.80

Source Information

Agency Information
USA
TOKYO
CMA
HKO
NEWDELHI
REUNION WMO-Best-Tracks.txt:Line=276:xxxx860042
BOM
NADI
WELLINGTON
DS824
TD9636 cons_worldwide_trop_cyclone_18710101-19891231-005:Line=371
TD9635
NEUMANN
MLC

All available IBTrACS Data

SEASON BASIN SUBBASIN ISO_TIME_________ NATURE LAT LON WMO AGENCY DIST2LAND LANDFALL IFLAG USA SSHS REUNION LAT REUNION LON REUNION TYPE REUNION TNUM TD9636 LAT TD9636 LON TD9636 STAGE STORM SPEED STORM DIR
Year degrees north degrees east km km 1 degrees north degrees east 1 degrees north degrees east kts degrees
1860 SI MM 1860-02-21 06:00:00 NR -13.90 56.90 reunion 696 675 _____O________ -1 -13.90 56.90 99 9.90 6 221
1860 SI MM 09:00:00 NR -14.11 56.71 676 653 _____P________ -1 -14.11 56.71 99 6 221
1860 SI MM 12:00:00 NR -14.32 56.52 653 628 _____P________ -1 -14.32 56.52 99 5 221
1860 SI MM 15:00:00 NR -14.52 56.34 628 627 _____P________ -1 -14.52 56.34 99 4 212
1860 SI MM 18:00:00 NR -14.63 56.31 627 608 _____P____O___ -1 -14.72 56.17 99 -14.30 56.90 7 3 206
1860 SI MM 21:00:00 NR -14.79 56.20 608 589 _____P____P___ -1 -14.91 56.00 99 -14.57 56.61 7 4 216
1860 SI MM 1860-02-22 00:00:00 NR -14.98 56.06 589 573 _____P____P___ -1 -15.08 55.85 99 -14.83 56.33 7 5 218
1860 SI MM 03:00:00 NR -15.16 55.90 573 566 _____P____P___ -1 -15.25 55.72 99 -15.08 56.09 7 5 218
1860 SI MM 06:00:00 NR -15.35 55.75 reunion 566 546 _____O____O___ -1 -15.40 55.60 99 9.90 -15.30 55.90 7 4 216
1860 SI MM 09:00:00 NR -15.51 55.64 546 542 _____P____P___ -1 -15.53 55.50 99 -15.49 55.77 7 4 211
1860 SI MM 12:00:00 NR -15.65 55.56 531 525 _____P____P___ -1 -15.65 55.42 99 -15.65 55.70 7 3 207
1860 SI MM 15:00:00 NR -15.77 55.50 525 515 _____P____P___ -1 -15.76 55.36 99 -15.79 55.65 7 3 205
1860 SI MM 18:00:00 NR -15.88 55.45 515 509 _____P____O___ -1 -15.86 55.30 99 -15.90 55.60 7 2 210
1860 SI MM 21:00:00 NR -15.97 55.39 509 509 _____P____P___ -1 -15.95 55.25 99 -15.99 55.52 7 2 216
1860 SI MM 1860-02-23 00:00:00 NR -16.05 55.33 504 504 _____P____P___ -1 -16.04 55.21 99 -16.06 55.45 7 2 218
1860 SI MM 03:00:00 NR -16.12 55.27 504 499 _____P____P___ -1 -16.12 55.16 99 -16.13 55.37 7 2 219
1860 SI MM 06:00:00 NR -16.20 55.20 reunion 499 489 _____O____O___ -1 -16.20 55.10 99 9.90 -16.20 55.30 7 2 219
1860 SI MM 09:00:00 NR -16.29 55.12 494 485 _____P____P___ -1 -16.29 55.02 99 -16.29 55.22 7 2 220
1860 SI MM 12:00:00 NR -16.39 55.04 490 481 _____P____P___ -1 -16.38 54.93 99 -16.39 55.15 7 2 220
1860 SI MM 15:00:00 NR -16.48 54.96 481 478 _____P____P___ -1 -16.46 54.84 99 -16.50 55.07 7 2 220
1860 SI MM 18:00:00 NR -16.58 54.87 478 475 _____P____O___ -1 -16.55 54.75 99 -16.60 55.00 7 2 220
1860 SI MM 21:00:00 NR -16.67 54.79 475 471 _____P____P___ -1 -16.64 54.66 99 -16.70 54.92 7 2 221
1860 SI MM 1860-02-24 00:00:00 NR -16.76 54.71 472 465 _____P____P___ -1 -16.72 54.57 99 -16.79 54.85 7 2 220
1860 SI MM 03:00:00 NR -16.85 54.63 464 464 _____P____P___ -1 -16.81 54.48 99 -16.89 54.77 7 2 219
1860 SI MM 06:00:00 NR -16.95 54.55 reunion 464 453 _____O____O___ -1 -16.90 54.40 99 9.90 -17.00 54.70 7 2 215
1860 SI MM 09:00:00 NR -17.05 54.48 444 435 _____P____P___ -1 -16.99 54.34 99 -17.12 54.62 7 2 211
1860 SI MM 12:00:00 NR -17.16 54.42 435 424 _____P____P___ -1 -17.07 54.28 99 -17.25 54.55 7 3 210
1860 SI MM 15:00:00 NR -17.27 54.35 424 416 _____P____P___ -1 -17.16 54.23 99 -17.38 54.47 7 3 210
1860 SI MM 18:00:00 NR -17.38 54.29 416 408 _____P____O___ -1 -17.25 54.17 99 -17.50 54.40 7 2 210
1860 SI MM 21:00:00 NR -17.48 54.22 408 397 _____P____P___ -1 -17.35 54.11 99 -17.60 54.33 7 2 211
1860 SI MM 1860-02-25 00:00:00 NR -17.58 54.16 397 390 _____P____P___ -1 -17.46 54.05 99 -17.69 54.26 7 2 212
1860 SI MM 03:00:00 NR -17.68 54.09 390 383 _____P____P___ -1 -17.57 53.98 99 -17.79 54.19 7 3 214
1860 SI MM 06:00:00 NR -17.80 54.00 reunion 383 372 _____O____O___ -1 -17.70 53.90 99 9.90 -17.90 54.10 7 3 215
1860 SI MM 09:00:00 NR -17.94 53.89 376 360 _____P____P___ -1 -17.84 53.80 99 -18.04 53.99 7 4 217
1860 SI MM 12:00:00 NR -18.09 53.78 360 355 _____P____P___ -1 -17.99 53.69 99 -18.19 53.87 7 4 217
1860 SI MM 15:00:00 NR -18.24 53.65 355 340 _____P____P___ -1 -18.14 53.57 99 -18.34 53.73 7 4 217
1860 SI MM 18:00:00 NR -18.40 53.52 346 334 _____P____O___ -1 -18.31 53.45 99 -18.50 53.60 7 4 218
1860 SI MM 21:00:00 NR -18.56 53.39 334 331 _____P____P___ -1 -18.47 53.31 99 -18.65 53.47 7 4 217
1860 SI MM 1860-02-26 00:00:00 NR -18.72 53.26 331 321 _____P____P___ -1 -18.65 53.18 99 -18.79 53.35 7 4 218
1860 SI MM 03:00:00 NR -18.88 53.13 328 320 _____P____P___ -1 -18.82 53.04 99 -18.94 53.22 7 4 217
1860 SI MM 06:00:00 NR -19.05 53.00 reunion 328 320 _____O____O___ -1 -19.00 52.90 99 9.90 -19.10 53.10 7 4 216
1860 SI MM 09:00:00 NR -19.22 52.87 320 314 _____P____P___ -1 -19.17 52.77 99 -19.27 52.98 7 4 215
1860 SI MM 12:00:00 NR -19.39 52.74 322 316 _____P____P___ -1 -19.34 52.63 99 -19.44 52.86 7 4 215
1860 SI MM 15:00:00 NR -19.57 52.61 318 318 _____P____P___ -1 -19.52 52.49 99 -19.62 52.73 7 4 216
1860 SI MM 18:00:00 NR -19.75 52.47 321 316 _____P____O___ -1 -19.69 52.35 99 -19.80 52.60 7 4 216
1860 SI MM 21:00:00 NR -19.92 52.33 330 325 _____P____P___ -1 -19.87 52.21 99 -19.98 52.46 7 4 219
1860 SI MM 1860-02-27 00:00:00 NR -20.09 52.17 331 331 _____P____P___ -1 -20.05 52.07 99 -20.15 52.31 7 5 222
1860 SI MM 03:00:00 NR -20.26 52.01 335 316 _____P____P___ -1 -20.22 51.93 99 -20.33 52.16 7 5 224
1860 SI MM 06:00:00 NR -20.42 51.84 reunion 316 307 _____O____O___ -1 -20.40 51.80 99 9.90 -20.50 52.00 7 5 225
1860 SI MM 09:00:00 NR -20.58 51.67 309 292 _____P________ -1 -20.58 51.67 99 7 4 221
1860 SI MM 12:00:00 NR -20.75 51.54 295 288 _____P________ -1 -20.75 51.54 99 7 4 214
1860 SI MM 15:00:00 NR -20.93 51.41 288 283 _____P________ -1 -20.93 51.41 99 7 4 214
1860 SI MM 18:00:00 NR -21.10 51.29 287 283 _____P________ -1 -21.10 51.29 99 4 213
1860 SI MM 21:00:00 NR -21.28 51.17 287 273 _____P________ -1 -21.28 51.17 99 4 213
1860 SI MM 1860-02-28 00:00:00 NR -21.45 51.04 275 267 _____P________ -1 -21.45 51.04 99 4 213
1860 SI MM 03:00:00 NR -21.63 50.92 267 260 _____P________ -1 -21.63 50.92 99 4 213
1860 SI MM 06:00:00 NR -21.80 50.80 reunion 262 _____O________ -1 -21.80 50.80 99 9.90 4 212